Time;durP1;ratioP1;P1;durP2;ratioP2;P2;SDS_P1;SDS_P2;PMS_P1;PMS_P2;Temp;Humidity;BMP_temperature;BMP_pressure;BME280_temperature;BME280_humidity;BME280_pressure;Samples;Min_cycle;Max_cycle;Signal;HPM_P1;HPM_P2
2020/12/18 00:02:22;;;;;;;15.98;11.48;;;4.00;74.90;;;;;;5044015;28;20041;-67
2020/12/18 00:04:48;;;;;;;16.60;11.85;;;3.90;75.00;;;;;;5040023;28;20037;-66
2020/12/18 00:07:14;;;;;;;16.90;11.25;;;4.00;75.20;;;;;;5024523;28;20029;-66
2020/12/18 00:09:40;;;;;;;16.23;11.23;;;4.00;75.20;;;;;;5042144;28;20041;-66
2020/12/18 00:12:06;;;;;;;16.27;11.75;;;3.90;74.60;;;;;;5030154;28;20030;-66
2020/12/18 00:14:31;;;;;;;14.43;10.80;;;3.90;74.80;;;;;;5032100;28;20083;-67
2020/12/18 00:16:57;;;;;;;17.05;10.88;;;3.90;74.80;;;;;;5043818;28;20037;-66
2020/12/18 00:19:22;;;;;;;15.82;11.10;;;3.80;74.90;;;;;;5044135;28;20032;-67
2020/12/18 00:21:48;;;;;;;14.40;10.50;;;3.90;74.60;;;;;;5043559;28;20041;-67
2020/12/18 00:24:13;;;;;;;17.38;11.15;;;4.00;74.80;;;;;;5043718;28;20144;-67
2020/12/18 00:26:39;;;;;;;16.15;11.07;;;4.00;74.90;;;;;;5043182;28;20084;-66
2020/12/18 00:29:04;;;;;;;15.45;10.40;;;3.90;74.90;;;;;;5041999;28;20071;-67
2020/12/18 00:31:30;;;;;;;14.45;10.18;;;3.90;75.30;;;;;;5043219;28;20255;-66
2020/12/18 00:33:55;;;;;;;18.10;11.20;;;3.90;75.00;;;;;;5044579;28;20029;-67
2020/12/18 00:36:21;;;;;;;15.95;11.05;;;3.80;75.10;;;;;;5043547;28;20057;-67
2020/12/18 00:38:46;;;;;;;16.83;11.35;;;3.80;75.10;;;;;;5043016;28;20029;-66
2020/12/18 00:41:12;;;;;;;15.85;10.93;;;3.70;75.30;;;;;;5043011;28;20111;-66
2020/12/18 00:43:38;;;;;;;15.15;10.70;;;3.70;75.30;;;;;;5074939;28;20037;-66
2020/12/18 00:46:06;;;;;;;14.00;10.13;;;3.70;75.40;;;;;;5044448;28;20037;-67
2020/12/18 00:48:32;;;;;;;15.93;10.85;;;3.70;75.70;;;;;;5043284;28;20042;-67
2020/12/18 00:50:58;;;;;;;13.75;10.30;;;3.60;75.20;;;;;;5042056;28;20352;-67
2020/12/18 00:53:23;;;;;;;14.75;10.95;;;3.60;75.10;;;;;;5042740;28;20115;-67
2020/12/18 00:55:49;;;;;;;16.15;10.77;;;3.50;74.90;;;;;;5041706;28;20073;-67
2020/12/18 00:58:14;;;;;;;14.45;10.70;;;3.50;75.10;;;;;;5044292;28;20233;-67
2020/12/18 01:00:40;;;;;;;15.88;11.05;;;3.50;75.20;;;;;;5043232;28;20095;-67
2020/12/18 01:03:05;;;;;;;16.40;11.35;;;3.40;75.40;;;;;;5042641;28;20071;-67
2020/12/18 01:05:31;;;;;;;16.45;10.60;;;3.40;75.50;;;;;;5034176;28;20030;-66
2020/12/18 01:07:56;;;;;;;16.77;11.13;;;3.40;75.60;;;;;;5022810;28;20041;-67
2020/12/18 01:10:22;;;;;;;13.70;10.50;;;3.40;75.40;;;;;;5024948;28;20037;-67
2020/12/18 01:12:48;;;;;;;15.15;10.52;;;3.50;75.60;;;;;;5041867;28;20096;-67
2020/12/18 01:15:14;;;;;;;15.18;10.02;;;3.50;75.90;;;;;;5042773;28;20037;-67
2020/12/18 01:17:39;;;;;;;13.82;9.48;;;3.50;75.90;;;;;;5042794;28;20042;-67
2020/12/18 01:20:05;;;;;;;15.15;9.95;;;3.50;76.20;;;;;;5042763;28;20087;-67
2020/12/18 01:22:30;;;;;;;13.57;9.82;;;3.60;76.20;;;;;;5042426;28;20060;-66
2020/12/18 01:24:56;;;;;;;14.18;9.45;;;3.60;75.90;;;;;;5043997;28;20093;-67
2020/12/18 01:27:21;;;;;;;12.43;8.93;;;3.50;75.90;;;;;;5042843;28;20037;-67
2020/12/18 01:29:47;;;;;;;11.82;8.93;;;3.50;75.70;;;;;;5041181;28;20038;-67
2020/12/18 01:32:13;;;;;;;12.07;7.90;;;3.60;75.90;;;;;;5041779;28;20231;-66
2020/12/18 01:34:38;;;;;;;11.98;8.07;;;3.50;75.50;;;;;;5042903;28;20040;-66
2020/12/18 01:37:04;;;;;;;9.63;7.85;;;3.50;75.40;;;;;;5044156;28;20049;-66
2020/12/18 01:39:30;;;;;;;11.75;7.55;;;3.40;75.50;;;;;;5042362;28;20038;-67
2020/12/18 01:41:55;;;;;;;10.55;7.70;;;3.40;75.60;;;;;;5042242;28;20091;-66
2020/12/18 01:44:21;;;;;;;10.10;7.80;;;3.50;75.50;;;;;;5042595;28;20037;-67
2020/12/18 01:46:46;;;;;;;10.93;7.53;;;3.40;75.60;;;;;;5042469;28;20029;-66
2020/12/18 01:49:12;;;;;;;10.93;7.85;;;3.40;75.60;;;;;;5076188;28;20033;-67
2020/12/18 01:51:38;;;;;;;9.63;7.35;;;3.40;75.60;;;;;;5057936;28;20042;-67
2020/12/18 01:54:03;;;;;;;9.85;7.60;;;3.30;75.60;;;;;;5045043;28;20089;-67
2020/12/18 01:56:29;;;;;;;11.77;8.02;;;3.20;75.70;;;;;;5022719;28;20333;-67
2020/12/18 01:58:54;;;;;;;8.38;6.88;;;3.20;75.60;;;;;;5021479;28;20044;-67
2020/12/18 02:01:20;;;;;;;10.38;7.65;;;3.20;75.50;;;;;;5024396;28;20037;-67
2020/12/18 02:03:45;;;;;;;10.18;7.63;;;3.20;75.50;;;;;;5021815;28;20045;-67
2020/12/18 02:06:14;;;;;;;10.68;7.35;;;3.30;75.30;;;;;;5022285;28;20243;-67
2020/12/18 02:08:40;;;;;;;10.88;7.32;;;3.20;75.20;;;;;;5022383;28;20062;-67
2020/12/18 02:11:06;;;;;;;11.57;8.02;;;3.20;74.90;;;;;;5021641;28;20089;-67
2020/12/18 02:13:31;;;;;;;9.00;7.22;;;3.10;75.20;;;;;;5022148;28;20049;-66
2020/12/18 02:15:57;;;;;;;10.18;7.43;;;3.20;75.30;;;;;;5022595;28;20062;-67
2020/12/18 02:18:23;;;;;;;11.15;8.13;;;3.10;75.20;;;;;;5037743;28;20033;-67
2020/12/18 02:20:53;;;;;;;9.05;7.13;;;3.10;75.30;;;;;;5073854;28;20046;-67
2020/12/18 02:23:18;;;;;;;9.48;7.22;;;3.10;75.30;;;;;;5041219;28;20037;-67
2020/12/18 02:25:44;;;;;;;9.52;6.95;;;3.10;75.50;;;;;;5043736;28;20063;-67
2020/12/18 02:28:11;;;;;;;9.43;7.50;;;3.20;75.60;;;;;;5027189;28;20049;-67
2020/12/18 02:30:37;;;;;;;10.70;7.72;;;3.10;75.40;;;;;;5025780;28;20097;-67
2020/12/18 02:33:04;;;;;;;11.13;7.90;;;3.10;75.80;;;;;;5025398;28;20260;-67
2020/12/18 02:35:29;;;;;;;9.15;6.97;;;3.00;75.60;;;;;;5025878;28;20274;-67
2020/12/18 02:37:55;;;;;;;9.88;7.50;;;3.10;75.80;;;;;;5025501;28;20034;-67
2020/12/18 02:40:21;;;;;;;9.40;7.32;;;3.10;75.90;;;;;;5027257;28;20080;-67
2020/12/18 02:42:46;;;;;;;10.43;7.50;;;3.10;75.90;;;;;;5043547;28;20256;-67
2020/12/18 02:45:12;;;;;;;10.32;7.68;;;3.10;75.70;;;;;;5045285;28;20048;-67
2020/12/18 02:47:37;;;;;;;10.88;8.07;;;3.10;75.60;;;;;;5060864;28;20229;-67
2020/12/18 02:50:03;;;;;;;12.13;8.00;;;3.10;75.70;;;;;;5045083;28;20037;-66
2020/12/18 02:52:29;;;;;;;10.77;7.45;;;3.10;75.70;;;;;;5046733;28;20033;-67
2020/12/18 02:54:54;;;;;;;13.88;9.30;;;3.10;75.50;;;;;;5026103;28;20257;-67
2020/12/18 02:57:20;;;;;;;12.30;8.35;;;3.10;75.40;;;;;;5040756;28;20324;-67
2020/12/18 02:59:45;;;;;;;14.10;8.38;;;3.00;75.60;;;;;;5043857;28;20037;-67
2020/12/18 03:02:11;;;;;;;13.15;9.18;;;3.10;75.50;;;;;;5045306;28;20216;-67
2020/12/18 03:04:36;;;;;;;13.15;9.20;;;3.10;75.90;;;;;;5044649;28;20038;-66
2020/12/18 03:07:02;;;;;;;13.32;9.27;;;3.10;76.00;;;;;;5046605;28;20220;-67
2020/12/18 03:09:28;;;;;;;14.82;9.20;;;3.00;76.00;;;;;;5045137;28;20067;-67
2020/12/18 03:11:53;;;;;;;13.43;9.45;;;3.10;76.00;;;;;;5076871;28;20041;-67
2020/12/18 03:14:19;;;;;;;14.07;9.27;;;3.00;76.20;;;;;;5044763;28;20038;-67
2020/12/18 03:16:44;;;;;;;13.65;9.13;;;3.10;76.10;;;;;;5045146;28;20297;-66
2020/12/18 03:19:11;;;;;;;14.07;8.98;;;3.00;76.20;;;;;;5046362;28;20212;-67
2020/12/18 03:21:36;;;;;;;15.52;10.40;;;3.00;76.20;;;;;;5076392;28;20390;-67
2020/12/18 03:24:02;;;;;;;15.25;10.05;;;3.10;76.30;;;;;;5043397;28;20057;-66
2020/12/18 03:26:28;;;;;;;15.90;9.73;;;3.10;76.20;;;;;;5044787;28;20029;-67
2020/12/18 03:28:53;;;;;;;15.20;10.02;;;3.00;76.10;;;;;;5044349;28;20074;-67
2020/12/18 03:31:19;;;;;;;14.35;9.48;;;3.10;76.10;;;;;;5045791;28;20025;-66
2020/12/18 03:33:45;;;;;;;14.55;10.05;;;3.10;76.10;;;;;;5044725;28;20037;-67
2020/12/18 03:36:10;;;;;;;13.30;9.48;;;3.10;75.80;;;;;;5046262;28;20061;-67
2020/12/18 03:38:36;;;;;;;13.95;9.98;;;3.10;76.10;;;;;;5024587;28;20034;-67
2020/12/18 03:41:05;;;;;;;15.07;9.63;;;3.10;75.90;;;;;;5024823;28;20054;-67
2020/12/18 03:43:31;;;;;;;14.35;9.40;;;3.10;75.90;;;;;;5024199;28;20075;-66
2020/12/18 03:45:56;;;;;;;13.43;9.77;;;3.10;75.90;;;;;;5024918;28;20025;-67
2020/12/18 03:48:22;;;;;;;14.55;10.02;;;3.10;75.90;;;;;;5024806;28;20061;-67
2020/12/18 03:50:47;;;;;;;14.18;9.68;;;3.10;75.90;;;;;;5024540;28;20064;-67
2020/12/18 03:53:13;;;;;;;14.27;9.80;;;3.10;76.10;;;;;;5024000;28;20333;-66
2020/12/18 03:55:38;;;;;;;15.10;9.23;;;3.10;76.10;;;;;;5057721;28;20026;-66
2020/12/18 03:58:04;;;;;;;16.75;11.07;;;3.10;76.00;;;;;;5045613;28;20053;-66
2020/12/18 04:00:29;;;;;;;16.92;10.38;;;3.00;75.80;;;;;;5044153;28;20068;-67
2020/12/18 04:02:55;;;;;;;18.13;9.93;;;3.00;76.30;;;;;;5032077;28;20040;-67
2020/12/18 04:05:21;;;;;;;15.07;10.02;;;3.00;76.40;;;;;;5030751;28;20076;-67
2020/12/18 04:07:46;;;;;;;13.93;9.32;;;3.10;76.20;;;;;;5042703;28;20359;-67
2020/12/18 04:10:12;;;;;;;12.48;9.20;;;3.10;75.70;;;;;;5045389;28;20030;-66
2020/12/18 04:12:37;;;;;;;13.00;9.25;;;3.10;75.70;;;;;;5042759;28;20092;-66
2020/12/18 04:15:03;;;;;;;13.05;9.60;;;3.10;75.70;;;;;;5043468;28;20037;-66
2020/12/18 04:17:28;;;;;;;14.63;9.82;;;3.10;75.90;;;;;;5043403;28;20056;-66
2020/12/18 04:19:54;;;;;;;15.07;9.80;;;3.10;75.80;;;;;;5043213;28;20037;-67
2020/12/18 04:22:20;;;;;;;14.20;9.65;;;3.20;76.10;;;;;;5044862;28;20035;-66
2020/12/18 04:24:46;;;;;;;13.63;9.02;;;3.10;75.70;;;;;;5043817;28;20206;-67
2020/12/18 04:27:11;;;;;;;16.35;9.98;;;3.10;76.00;;;;;;5044790;28;20049;-67
2020/12/18 04:29:37;;;;;;;14.48;9.70;;;3.00;75.70;;;;;;5023819;28;20038;-67
2020/12/18 04:32:02;;;;;;;15.25;9.70;;;3.00;75.80;;;;;;5023296;28;20041;-67
2020/12/18 04:34:28;;;;;;;16.35;10.13;;;3.00;75.70;;;;;;5024847;28;20237;-66
2020/12/18 04:36:53;;;;;;;15.77;9.05;;;3.00;75.60;;;;;;5023174;28;20042;-67
2020/12/18 04:39:19;;;;;;;14.75;10.15;;;2.90;75.70;;;;;;5023491;28;20100;-66
2020/12/18 04:41:44;;;;;;;14.35;9.07;;;2.90;75.80;;;;;;5023499;28;20036;-66
2020/12/18 04:44:10;;;;;;;13.93;9.35;;;2.90;75.80;;;;;;5023311;28;20038;-67
2020/12/18 04:46:36;;;;;;;13.23;9.18;;;2.90;75.50;;;;;;5021739;28;20026;-66
2020/12/18 04:49:03;;;;;;;15.13;9.30;;;2.90;75.60;;;;;;5024832;28;20037;-67
2020/12/18 04:51:28;;;;;;;13.10;8.82;;;2.90;75.20;;;;;;5023410;28;20341;-67
2020/12/18 04:53:55;;;;;;;14.55;9.13;;;3.00;75.30;;;;;;5021964;28;20044;-67
2020/12/18 04:56:23;;;;;;;14.00;8.57;;;2.90;75.20;;;;;;5028959;28;20083;-67
2020/12/18 04:58:49;;;;;;;12.70;8.80;;;2.90;75.70;;;;;;5040423;28;20029;-67
2020/12/18 05:01:20;;;;;;;13.55;8.75;;;2.90;75.80;;;;;;5024471;28;20091;-67
2020/12/18 05:03:46;;;;;;;13.02;8.75;;;2.90;75.70;;;;;;5040970;28;20030;-66
2020/12/18 05:06:12;;;;;;;14.10;8.30;;;2.90;75.60;;;;;;5043196;28;20030;-67
2020/12/18 05:08:38;;;;;;;11.63;8.48;;;2.90;75.70;;;;;;5042818;28;20076;-67
2020/12/18 05:11:26;;;;;;;12.52;8.50;;;3.00;75.50;;;;;;5042689;28;20049;-67
2020/12/18 05:13:52;;;;;;;14.32;9.07;;;2.90;75.60;;;;;;5042728;28;20037;-67
2020/12/18 05:16:19;;;;;;;12.50;8.82;;;3.00;75.90;;;;;;5044314;28;20044;-67
2020/12/18 05:18:45;;;;;;;15.43;9.05;;;3.00;75.80;;;;;;5041925;28;20083;-67
2020/12/18 05:21:11;;;;;;;13.70;9.30;;;3.00;75.90;;;;;;5041407;28;20053;-67
2020/12/18 05:23:37;;;;;;;14.10;8.85;;;3.00;76.00;;;;;;5042039;28;20250;-67
2020/12/18 05:26:07;;;;;;;11.73;8.48;;;3.00;75.80;;;;;;5042398;28;20096;-67
2020/12/18 05:28:43;;;;;;;13.35;9.55;;;3.00;75.80;;;;;;5042931;28;20037;-66
2020/12/18 05:31:14;;;;;;;13.07;8.63;;;2.90;75.70;;;;;;5044176;28;20042;-67
2020/12/18 05:33:40;;;;;;;14.60;8.60;;;2.90;75.70;;;;;;5043019;28;20041;-67
2020/12/18 05:36:05;;;;;;;14.35;8.50;;;2.90;75.30;;;;;;5042412;28;20083;-67
2020/12/18 05:38:33;;;;;;;15.48;8.82;;;2.90;75.10;;;;;;5042299;28;20029;-67
2020/12/18 05:41:00;;;;;;;12.85;8.88;;;2.90;75.00;;;;;;5042209;28;20056;-67
2020/12/18 05:43:43;;;;;;;12.07;8.25;;;2.80;75.10;;;;;;5044855;28;20033;-66
2020/12/18 05:46:39;;;;;;;15.07;9.00;;;2.80;75.30;;;;;;5047832;28;20104;-66
2020/12/18 05:49:08;;;;;;;12.98;8.63;;;2.80;75.10;;;;;;5030326;28;20041;-67
2020/12/18 05:51:39;;;;;;;15.88;9.40;;;2.80;75.40;;;;;;5042409;28;20064;-67
2020/12/18 05:54:09;;;;;;;14.35;9.30;;;2.80;75.50;;;;;;5041872;28;20101;-67
2020/12/18 05:56:35;;;;;;;13.30;9.02;;;2.90;75.70;;;;;;5041893;28;20053;-67
2020/12/18 05:59:10;;;;;;;13.10;8.73;;;2.80;75.30;;;;;;5043776;28;20336;-67
2020/12/18 06:01:47;;;;;;;11.30;8.35;;;2.80;75.20;;;;;;5045867;28;20029;-66
2020/12/18 06:04:17;;;;;;;11.90;8.52;;;2.80;75.00;;;;;;5047657;28;20022;-66
2020/12/18 06:06:44;;;;;;;13.90;9.38;;;2.80;74.90;;;;;;5028274;28;20226;-67
2020/12/18 06:09:10;;;;;;;12.43;8.32;;;2.80;74.70;;;;;;5026338;28;20132;-67
2020/12/18 06:11:36;;;;;;;14.52;9.43;;;2.70;75.10;;;;;;5026037;28;20045;-67
2020/12/18 06:14:02;;;;;;;12.25;8.50;;;2.70;75.00;;;;;;5026307;28;20062;-67
2020/12/18 06:16:29;;;;;;;16.05;9.05;;;2.60;74.60;;;;;;5027667;28;20037;-67
2020/12/18 06:19:02;;;;;;;13.57;8.65;;;2.60;74.80;;;;;;5025161;28;20353;-66
2020/12/18 06:21:27;;;;;;;14.25;8.35;;;2.60;75.00;;;;;;5025535;28;20073;-67
2020/12/18 06:23:54;;;;;;;16.90;9.00;;;2.70;75.00;;;;;;5025906;28;20084;-67
2020/12/18 06:26:20;;;;;;;14.27;9.32;;;2.60;74.90;;;;;;5025684;28;20325;-67
2020/12/18 06:28:46;;;;;;;16.30;10.23;;;2.60;74.30;;;;;;5024335;28;20029;-67
2020/12/18 06:31:25;;;;;;;13.52;9.20;;;2.50;74.40;;;;;;5026489;28;20092;-67
2020/12/18 06:33:55;;;;;;;14.98;9.35;;;2.50;74.80;;;;;;5025775;28;20249;-67
2020/12/18 06:36:48;;;;;;;12.95;9.27;;;2.50;75.00;;;;;;5024652;28;20034;-67
2020/12/18 06:39:21;;;;;;;13.63;9.25;;;2.50;74.40;;;;;;5025720;28;20034;-66
2020/12/18 06:41:46;;;;;;;15.10;9.15;;;2.50;74.50;;;;;;5036289;28;20324;-66
2020/12/18 06:44:34;;;;;;;15.13;9.35;;;2.50;74.60;;;;;;5044986;28;20034;-66
2020/12/18 06:47:09;;;;;;;14.02;9.70;;;2.40;74.70;;;;;;5044880;28;20324;-67
2020/12/18 06:50:10;;;;;;;17.17;9.60;;;2.40;74.90;;;;;;5045007;28;20030;-65
2020/12/18 06:52:38;;;;;;;12.77;9.35;;;2.50;74.90;;;;;;5044141;28;20045;-67
2020/12/18 06:55:04;;;;;;;13.93;8.90;;;2.40;74.90;;;;;;5027008;28;20365;-67
2020/12/18 06:57:31;;;;;;;15.15;9.48;;;2.50;75.00;;;;;;5042039;28;20136;-67
2020/12/18 07:00:24;;;;;;;18.40;9.23;;;2.50;75.00;;;;;;5044061;28;20093;-68
2020/12/18 07:02:50;;;;;;;14.18;9.25;;;2.50;74.80;;;;;;5044859;28;20048;-67
2020/12/18 07:05:35;;;;;;;16.05;9.15;;;2.40;74.90;;;;;;5077340;28;20061;-66
2020/12/18 07:08:06;;;;;;;16.55;10.07;;;2.50;74.90;;;;;;5040617;28;20026;-66
2020/12/18 07:10:37;;;;;;;14.68;10.23;;;2.40;75.10;;;;;;5024453;28;20030;-66
2020/12/18 07:13:04;;;;;;;13.38;9.57;;;2.50;75.30;;;;;;5026347;28;20038;-67
2020/12/18 07:15:45;;;;;;;14.88;9.23;;;2.50;75.60;;;;;;5041696;28;20094;-66
2020/12/18 07:18:15;;;;;;;12.75;9.00;;;2.50;75.60;;;;;;5045183;28;20044;-66
2020/12/18 07:20:45;;;;;;;15.03;9.77;;;2.60;75.80;;;;;;5026895;28;20053;-67
2020/12/18 07:23:11;;;;;;;13.90;9.18;;;2.60;75.60;;;;;;5038876;28;20030;-66
2020/12/18 07:25:36;;;;;;;16.92;8.82;;;2.60;75.80;;;;;;5025445;28;20088;-66
2020/12/18 07:28:02;;;;;;;16.70;9.20;;;2.60;75.70;;;;;;5046244;28;20029;-66
2020/12/18 07:30:37;;;;;;;16.38;9.93;;;2.60;75.80;;;;;;5028073;28;20218;-67
2020/12/18 07:33:02;;;;;;;14.30;9.45;;;2.60;75.80;;;;;;5023565;28;20042;-65
2020/12/18 07:35:28;;;;;;;14.70;9.77;;;2.60;75.80;;;;;;5024350;28;20233;-67
2020/12/18 07:37:54;;;;;;;12.52;9.20;;;2.60;76.10;;;;;;5024561;28;20038;-67
2020/12/18 07:40:19;;;;;;;13.75;9.00;;;2.70;76.00;;;;;;5025304;28;20026;-65
2020/12/18 07:42:46;;;;;;;13.93;9.73;;;2.70;75.70;;;;;;5023676;28;20096;-65
2020/12/18 07:45:11;;;;;;;14.32;9.27;;;2.70;75.70;;;;;;5023121;28;20041;-66
2020/12/18 07:47:38;;;;;;;15.07;9.48;;;2.70;75.80;;;;;;5033891;28;20041;-66
2020/12/18 07:50:05;;;;;;;16.15;9.27;;;2.70;75.70;;;;;;5039595;28;20229;-69
2020/12/18 07:52:31;;;;;;;15.65;9.52;;;2.70;75.80;;;;;;5024913;28;20060;-65
2020/12/18 07:54:56;;;;;;;12.88;9.52;;;2.70;75.90;;;;;;5044565;28;20033;-66
2020/12/18 07:57:22;;;;;;;14.98;9.88;;;2.70;75.80;;;;;;5044173;28;20053;-66
2020/12/18 07:59:48;;;;;;;20.98;8.98;;;2.80;75.90;;;;;;5076210;28;20083;-66
2020/12/18 08:02:24;;;;;;;13.48;8.85;;;2.80;76.00;;;;;;5075794;28;20032;-66
2020/12/18 08:04:57;;;;;;;15.70;9.60;;;2.90;76.00;;;;;;5043902;28;20241;-66
2020/12/18 08:07:22;;;;;;;15.95;9.48;;;2.90;76.20;;;;;;5044300;28;20037;-66
2020/12/18 08:10:06;;;;;;;17.73;10.45;;;2.90;76.10;;;;;;5043813;28;20044;-66
2020/12/18 08:12:32;;;;;;;16.08;10.27;;;3.10;76.10;;;;;;5026151;28;20300;-65
2020/12/18 08:15:11;;;;;;;18.17;10.23;;;3.20;76.00;;;;;;5023844;28;20063;-66
2020/12/18 08:17:39;;;;;;;16.00;10.15;;;3.30;76.40;;;;;;5023831;28;20272;-65
2020/12/18 08:20:05;;;;;;;14.48;9.02;;;3.40;76.30;;;;;;5023175;28;20048;-65
2020/12/18 08:22:33;;;;;;;15.05;9.15;;;3.40;76.10;;;;;;5023402;28;20062;-66
2020/12/18 08:24:58;;;;;;;13.07;8.90;;;3.50;75.70;;;;;;5024505;28;20022;-65
2020/12/18 08:27:25;;;;;;;15.57;8.90;;;3.50;75.70;;;;;;5055091;28;20400;-65
2020/12/18 08:29:51;;;;;;;13.40;8.60;;;3.70;75.80;;;;;;5059107;28;20049;-65
2020/12/18 08:32:18;;;;;;;14.98;9.10;;;3.80;75.00;;;;;;5058619;28;20248;-66
2020/12/18 08:34:44;;;;;;;17.15;8.75;;;3.90;74.70;;;;;;5040185;28;20036;-66
2020/12/18 08:37:10;;;;;;;13.27;8.77;;;4.00;74.60;;;;;;5040305;28;20049;-64
2020/12/18 08:39:36;;;;;;;20.23;9.18;;;3.90;74.40;;;;;;5073037;28;20037;-64
2020/12/18 08:42:02;;;;;;;15.13;8.65;;;4.20;74.90;;;;;;5043279;28;20145;-65
2020/12/18 08:44:38;;;;;;;11.88;8.10;;;4.30;75.70;;;;;;5035376;28;20066;-64
2020/12/18 08:47:15;;;;;;;14.93;9.05;;;4.20;76.10;;;;;;5023469;28;20034;-67
2020/12/18 08:49:41;;;;;;;14.02;8.38;;;4.20;76.70;;;;;;5022518;28;20032;-66
2020/12/18 08:52:06;;;;;;;13.13;9.13;;;4.50;76.00;;;;;;5024842;28;20049;-66
2020/12/18 08:54:34;;;;;;;14.95;9.15;;;4.50;75.60;;;;;;5023383;28;20217;-64
2020/12/18 08:57:24;;;;;;;15.93;8.25;;;4.50;75.50;;;;;;5035628;28;20041;-65
2020/12/18 09:00:01;;;;;;;11.60;7.80;;;4.50;75.90;;;;;;5075332;28;20034;-66
2020/12/18 09:02:27;;;;;;;14.20;7.50;;;4.60;76.00;;;;;;5041727;28;20087;-66
2020/12/18 09:05:09;;;;;;;12.63;7.15;;;4.50;76.10;;;;;;5042028;28;20034;-65
2020/12/18 09:07:48;;;;;;;10.68;6.65;;;4.50;76.10;;;;;;5042874;28;20048;-66
2020/12/18 09:10:13;;;;;;;10.15;6.43;;;4.50;76.50;;;;;;5059365;28;20037;-66
2020/12/18 09:12:43;;;;;;;11.10;6.30;;;4.90;75.60;;;;;;5075035;28;20325;-65
2020/12/18 09:15:29;;;;;;;11.02;6.47;;;5.20;74.70;;;;;;5073822;28;20033;-66
2020/12/18 09:18:05;;;;;;;9.85;6.40;;;5.30;74.00;;;;;;5030846;28;20038;-66
2020/12/18 09:20:32;;;;;;;15.70;6.82;;;5.40;74.20;;;;;;5031172;28;20049;-67
2020/12/18 09:23:02;;;;;;;12.45;6.93;;;5.30;74.60;;;;;;5042432;28;20033;-67
2020/12/18 09:25:27;;;;;;;10.18;6.20;;;5.30;75.00;;;;;;5044146;28;20084;-67
2020/12/18 09:27:54;;;;;;;12.50;6.78;;;5.40;75.20;;;;;;5041301;28;20044;-67
2020/12/18 09:30:21;;;;;;;9.75;6.25;;;5.60;74.70;;;;;;5042301;28;20044;-66
2020/12/18 09:32:47;;;;;;;9.15;6.28;;;5.70;74.80;;;;;;5075996;28;20272;-65
2020/12/18 09:35:12;;;;;;;8.55;6.38;;;5.80;74.00;;;;;;5046451;28;20033;-65
2020/12/18 09:37:38;;;;;;;10.40;5.78;;;5.90;74.50;;;;;;5046548;28;20029;-65
2020/12/18 09:40:03;;;;;;;9.95;5.57;;;6.30;73.30;;;;;;5048131;28;20202;-66
2020/12/18 09:42:29;;;;;;;8.68;5.60;;;6.60;72.20;;;;;;5044941;28;20041;-64
2020/12/18 09:44:55;;;;;;;8.38;6.10;;;6.90;71.60;;;;;;5045233;28;20056;-65
2020/12/18 09:47:20;;;;;;;9.65;5.65;;;7.00;71.10;;;;;;5046349;28;20037;-66
2020/12/18 09:49:46;;;;;;;8.43;5.35;;;7.00;71.80;;;;;;5046147;28;20079;-66
2020/12/18 09:52:11;;;;;;;11.82;5.65;;;7.20;70.80;;;;;;5047881;28;20086;-66
2020/12/18 09:54:37;;;;;;;8.18;5.60;;;7.20;70.00;;;;;;5046617;28;20091;-66
2020/12/18 09:57:02;;;;;;;9.25;5.82;;;7.50;69.80;;;;;;5045981;28;20356;-66
2020/12/18 09:59:28;;;;;;;8.43;5.60;;;7.60;69.20;;;;;;5045959;28;20037;-67
2020/12/18 10:01:53;;;;;;;11.02;5.80;;;7.90;68.80;;;;;;5045497;28;20029;-66
2020/12/18 10:04:19;;;;;;;7.93;5.35;;;7.90;67.50;;;;;;5047731;28;20039;-66
2020/12/18 10:06:44;;;;;;;11.57;5.57;;;8.20;67.70;;;;;;5046011;28;20041;-66
2020/12/18 10:09:10;;;;;;;10.40;5.25;;;8.30;67.30;;;;;;5046231;28;20041;-66
2020/12/18 10:11:36;;;;;;;7.43;4.97;;;8.30;67.40;;;;;;5045904;28;20033;-67
2020/12/18 10:14:01;;;;;;;9.18;4.75;;;8.30;68.90;;;;;;5077964;28;20100;-66
2020/12/18 10:16:27;;;;;;;10.23;5.18;;;8.20;68.00;;;;;;5047075;28;20056;-64
2020/12/18 10:18:52;;;;;;;9.45;5.43;;;8.20;69.00;;;;;;5077751;28;20041;-63
2020/12/18 10:21:18;;;;;;;10.45;6.43;;;8.10;69.30;;;;;;5030605;28;20053;-64
2020/12/18 10:23:44;;;;;;;11.52;7.18;;;8.10;68.00;;;;;;5025995;28;20060;-64
2020/12/18 10:26:09;;;;;;;11.50;6.80;;;8.10;67.50;;;;;;5030117;28;20045;-67
2020/12/18 10:28:35;;;;;;;15.25;7.68;;;8.10;67.90;;;;;;5044271;28;20240;-63
2020/12/18 10:31:00;;;;;;;12.30;7.53;;;8.10;68.50;;;;;;5046982;28;20337;-64
2020/12/18 10:33:26;;;;;;;15.10;7.30;;;8.20;68.80;;;;;;5045736;28;20217;-64
2020/12/18 10:35:51;;;;;;;10.95;6.20;;;8.20;70.70;;;;;;5077728;28;20091;-63
2020/12/18 10:38:17;;;;;;;11.80;5.38;;;8.30;68.20;;;;;;5037262;28;20044;-67
2020/12/18 10:40:42;;;;;;;7.32;4.60;;;8.40;67.40;;;;;;5026416;28;20269;-67
2020/12/18 10:43:12;;;;;;;5.95;3.97;;;8.50;67.10;;;;;;5047173;28;20212;-67
2020/12/18 10:45:37;;;;;;;7.05;4.18;;;8.60;66.80;;;;;;5044673;28;20055;-67
2020/12/18 10:48:03;;;;;;;7.97;4.20;;;8.80;68.50;;;;;;5045415;28;20033;-68
2020/12/18 10:50:29;;;;;;;5.47;3.60;;;8.90;67.60;;;;;;5045367;28;20037;-68
2020/12/18 10:52:54;;;;;;;4.88;3.40;;;8.90;68.20;;;;;;5044839;28;20041;-65
2020/12/18 10:55:20;;;;;;;6.85;3.40;;;9.00;66.20;;;;;;5078716;28;20040;-65
2020/12/18 10:57:45;;;;;;;5.95;3.58;;;9.10;64.80;;;;;;5045154;28;20041;-65
2020/12/18 11:00:11;;;;;;;4.13;2.97;;;9.20;65.30;;;;;;5044909;28;20257;-65
2020/12/18 11:02:36;;;;;;;5.40;3.40;;;9.30;64.10;;;;;;5044928;28;20248;-65
2020/12/18 11:05:03;;;;;;;5.03;3.15;;;9.40;64.30;;;;;;5044822;28;20037;-68
2020/12/18 11:07:28;;;;;;;5.00;3.03;;;9.60;64.00;;;;;;5045036;28;20029;-68
2020/12/18 11:09:54;;;;;;;6.63;3.38;;;9.80;64.60;;;;;;5045191;28;20029;-67
2020/12/18 11:12:20;;;;;;;4.75;3.05;;;10.00;64.90;;;;;;5029934;28;20026;-67
2020/12/18 11:14:46;;;;;;;5.03;3.25;;;10.30;63.60;;;;;;5034917;28;20037;-67
2020/12/18 11:17:11;;;;;;;6.18;3.20;;;10.40;64.10;;;;;;5044490;28;20335;-68
2020/12/18 11:19:37;;;;;;;6.75;3.67;;;10.70;61.60;;;;;;5043323;28;20076;-68
2020/12/18 11:22:03;;;;;;;4.95;3.55;;;10.80;60.70;;;;;;5026068;28;20235;-67
2020/12/18 11:24:29;;;;;;;6.72;3.60;;;11.10;59.90;;;;;;5023730;28;20041;-68
2020/12/18 11:26:55;;;;;;;10.77;4.25;;;11.30;60.20;;;;;;5024735;28;20042;-68
2020/12/18 11:29:20;;;;;;;9.57;4.57;;;11.40;60.10;;;;;;5024597;28;20121;-67
2020/12/18 11:31:48;;;;;;;8.88;4.00;;;11.50;59.40;;;;;;5026595;28;20057;-68
2020/12/18 11:34:14;;;;;;;8.55;4.45;;;11.50;56.90;;;;;;5045767;28;20034;-68
2020/12/18 11:36:39;;;;;;;10.30;4.63;;;11.50;57.00;;;;;;5026937;28;20198;-69
2020/12/18 11:39:05;;;;;;;8.55;4.05;;;11.40;57.40;;;;;;5023700;28;20036;-68
2020/12/18 11:41:31;;;;;;;9.63;4.43;;;11.30;57.10;;;;;;5064730;28;20037;-68
2020/12/18 11:43:57;;;;;;;7.57;4.93;;;11.30;57.40;;;;;;5043821;28;20036;-67
2020/12/18 11:46:22;;;;;;;8.20;4.53;;;11.10;58.10;;;;;;5045488;28;20029;-67
2020/12/18 11:48:48;;;;;;;8.70;4.13;;;10.90;58.80;;;;;;5044348;28;20037;-67
2020/12/18 11:51:14;;;;;;;9.82;4.32;;;10.80;58.10;;;;;;5029937;28;20037;-67
2020/12/18 11:53:39;;;;;;;9.65;4.38;;;10.80;58.50;;;;;;5023083;28;20237;-66
2020/12/18 11:56:05;;;;;;;9.52;5.00;;;10.70;59.00;;;;;;5028918;28;20037;-68
2020/12/18 11:58:30;;;;;;;8.90;4.22;;;10.80;60.80;;;;;;5043917;28;20077;-69
2020/12/18 12:00:56;;;;;;;7.20;3.75;;;10.90;58.90;;;;;;5045181;28;20043;-69
2020/12/18 12:03:25;;;;;;;5.75;3.70;;;11.00;57.50;;;;;;5042754;28;20083;-66
2020/12/18 12:05:51;;;;;;;6.22;3.58;;;11.20;56.50;;;;;;5032629;28;20133;-66
2020/12/18 12:08:16;;;;;;;5.03;3.28;;;11.30;55.60;;;;;;5030195;28;20034;-68
2020/12/18 12:10:42;;;;;;;5.18;3.38;;;11.30;55.40;;;;;;5041848;28;20217;-66
2020/12/18 12:13:08;;;;;;;4.38;2.58;;;11.40;54.30;;;;;;5025483;28;20252;-66
2020/12/18 12:15:33;;;;;;;4.93;2.90;;;11.50;53.70;;;;;;5022879;28;20034;-66
2020/12/18 12:17:59;;;;;;;4.82;3.33;;;11.50;54.00;;;;;;5023909;28;20037;-66
2020/12/18 12:20:26;;;;;;;4.13;2.50;;;11.50;55.10;;;;;;5023382;28;20050;-66
2020/12/18 12:22:51;;;;;;;3.95;2.60;;;11.30;53.60;;;;;;5026518;28;20029;-66
2020/12/18 12:25:17;;;;;;;5.63;3.20;;;11.30;52.90;;;;;;5044202;28;20049;-66
2020/12/18 12:27:42;;;;;;;7.20;4.82;;;11.30;53.80;;;;;;5025446;28;20101;-67
2020/12/18 12:30:10;;;;;;;9.05;5.10;;;11.30;57.60;;;;;;5052171;28;20329;-67
2020/12/18 12:32:36;;;;;;;6.95;5.47;;;11.20;58.20;;;;;;5043330;28;20048;-67
2020/12/18 12:35:02;;;;;;;6.97;4.85;;;11.10;58.50;;;;;;5043321;28;20025;-67
2020/12/18 12:37:27;;;;;;;9.23;4.93;;;11.20;58.80;;;;;;5044714;28;20100;-66
2020/12/18 12:39:53;;;;;;;8.30;4.95;;;11.10;58.50;;;;;;5043615;28;20116;-66
2020/12/18 12:42:18;;;;;;;8.45;5.75;;;11.20;58.70;;;;;;5027956;28;20085;-66
2020/12/18 12:44:44;;;;;;;7.25;5.07;;;11.00;59.50;;;;;;5023243;28;20030;-66
2020/12/18 12:47:10;;;;;;;10.73;6.05;;;10.80;59.90;;;;;;5028892;28;20025;-67